sensor_id;sensor_type;location;lat;lon;timestamp;temperature;humidity
49441;DHT22;35317;51.978;6.296;2023-03-04T00:02:07;6.70;92.80
49441;DHT22;35317;51.978;6.296;2023-03-04T00:07:08;6.70;92.80
49441;DHT22;35317;51.978;6.296;2023-03-04T00:12:08;6.70;92.90
49441;DHT22;35317;51.978;6.296;2023-03-04T00:17:09;6.70;92.90
49441;DHT22;35317;51.978;6.296;2023-03-04T00:22:10;6.70;93.00
49441;DHT22;35317;51.978;6.296;2023-03-04T00:27:11;6.70;93.00
49441;DHT22;35317;51.978;6.296;2023-03-04T00:32:11;6.70;93.30
49441;DHT22;35317;51.978;6.296;2023-03-04T00:37:12;6.70;93.10
49441;DHT22;35317;51.978;6.296;2023-03-04T00:42:13;6.70;93.10
49441;DHT22;35317;51.978;6.296;2023-03-04T00:47:14;6.70;93.20
49441;DHT22;35317;51.978;6.296;2023-03-04T00:52:14;6.70;93.20
49441;DHT22;35317;51.978;6.296;2023-03-04T00:57:15;6.60;93.20
49441;DHT22;35317;51.978;6.296;2023-03-04T01:02:16;6.70;93.30
49441;DHT22;35317;51.978;6.296;2023-03-04T01:07:17;6.60;93.40
49441;DHT22;35317;51.978;6.296;2023-03-04T01:12:18;6.60;93.40
49441;DHT22;35317;51.978;6.296;2023-03-04T01:17:19;6.70;93.40
49441;DHT22;35317;51.978;6.296;2023-03-04T01:22:20;6.60;93.50
49441;DHT22;35317;51.978;6.296;2023-03-04T01:27:20;6.60;93.60
49441;DHT22;35317;51.978;6.296;2023-03-04T01:32:21;6.60;93.60
49441;DHT22;35317;51.978;6.296;2023-03-04T01:37:22;6.60;93.70
49441;DHT22;35317;51.978;6.296;2023-03-04T01:42:24;6.60;93.80
49441;DHT22;35317;51.978;6.296;2023-03-04T01:47:30;6.60;93.80
49441;DHT22;35317;51.978;6.296;2023-03-04T01:52:32;6.60;93.90
49441;DHT22;35317;51.978;6.296;2023-03-04T01:57:34;6.60;93.90
49441;DHT22;35317;51.978;6.296;2023-03-04T02:02:35;6.60;94.00
49441;DHT22;35317;51.978;6.296;2023-03-04T02:07:36;6.60;94.00
49441;DHT22;35317;51.978;6.296;2023-03-04T02:12:38;6.60;94.00
49441;DHT22;35317;51.978;6.296;2023-03-04T02:17:39;6.60;94.10
49441;DHT22;35317;51.978;6.296;2023-03-04T02:23:45;6.60;94.20
49441;DHT22;35317;51.978;6.296;2023-03-04T02:28:16;6.60;94.30
49441;DHT22;35317;51.978;6.296;2023-03-04T02:33:18;6.60;94.30
49441;DHT22;35317;51.978;6.296;2023-03-04T02:38:19;6.50;94.20
49441;DHT22;35317;51.978;6.296;2023-03-04T02:43:21;6.50;94.10
49441;DHT22;35317;51.978;6.296;2023-03-04T02:48:22;6.60;94.20
49441;DHT22;35317;51.978;6.296;2023-03-04T02:53:23;6.60;94.20
49441;DHT22;35317;51.978;6.296;2023-03-04T02:58:28;6.50;94.30
49441;DHT22;35317;51.978;6.296;2023-03-04T03:03:29;6.50;94.30
49441;DHT22;35317;51.978;6.296;2023-03-04T03:08:29;6.50;94.30
49441;DHT22;35317;51.978;6.296;2023-03-04T03:13:30;6.50;94.20
49441;DHT22;35317;51.978;6.296;2023-03-04T03:18:31;6.50;94.20
49441;DHT22;35317;51.978;6.296;2023-03-04T03:23:33;6.50;94.20
49441;DHT22;35317;51.978;6.296;2023-03-04T03:28:34;6.50;94.20
49441;DHT22;35317;51.978;6.296;2023-03-04T03:33:35;6.50;94.20
49441;DHT22;35317;51.978;6.296;2023-03-04T03:38:36;6.50;94.20
49441;DHT22;35317;51.978;6.296;2023-03-04T03:43:37;6.50;94.20
49441;DHT22;35317;51.978;6.296;2023-03-04T03:48:38;6.50;94.20
49441;DHT22;35317;51.978;6.296;2023-03-04T03:53:39;6.50;94.20
49441;DHT22;35317;51.978;6.296;2023-03-04T03:58:39;6.50;94.20
49441;DHT22;35317;51.978;6.296;2023-03-04T04:03:40;6.50;94.10
49441;DHT22;35317;51.978;6.296;2023-03-04T04:08:41;6.50;94.10
49441;DHT22;35317;51.978;6.296;2023-03-04T04:13:41;6.50;94.10
49441;DHT22;35317;51.978;6.296;2023-03-04T04:18:42;6.50;94.20
49441;DHT22;35317;51.978;6.296;2023-03-04T04:23:43;6.40;94.20
49441;DHT22;35317;51.978;6.296;2023-03-04T04:28:44;6.40;94.30
49441;DHT22;35317;51.978;6.296;2023-03-04T04:33:44;6.50;94.40
49441;DHT22;35317;51.978;6.296;2023-03-04T04:38:45;6.40;94.40
49441;DHT22;35317;51.978;6.296;2023-03-04T04:43:46;6.40;94.50
49441;DHT22;35317;51.978;6.296;2023-03-04T04:48:47;6.40;94.50
49441;DHT22;35317;51.978;6.296;2023-03-04T04:53:48;6.50;94.60
49441;DHT22;35317;51.978;6.296;2023-03-04T04:58:48;6.40;94.70
49441;DHT22;35317;51.978;6.296;2023-03-04T05:03:50;6.40;94.80
49441;DHT22;35317;51.978;6.296;2023-03-04T05:08:52;6.40;95.00
49441;DHT22;35317;51.978;6.296;2023-03-04T05:13:53;6.40;95.20
49441;DHT22;35317;51.978;6.296;2023-03-04T05:18:54;6.30;95.30
49441;DHT22;35317;51.978;6.296;2023-03-04T05:23:54;6.30;95.60
49441;DHT22;35317;51.978;6.296;2023-03-04T05:28:55;6.30;95.70
49441;DHT22;35317;51.978;6.296;2023-03-04T05:33:56;6.30;95.80
49441;DHT22;35317;51.978;6.296;2023-03-04T05:38:56;6.30;95.90
49441;DHT22;35317;51.978;6.296;2023-03-04T05:43:57;6.30;96.00
49441;DHT22;35317;51.978;6.296;2023-03-04T05:48:58;6.30;96.00
49441;DHT22;35317;51.978;6.296;2023-03-04T05:53:59;6.30;96.10
49441;DHT22;35317;51.978;6.296;2023-03-04T05:58:59;6.30;96.20
49441;DHT22;35317;51.978;6.296;2023-03-04T06:04:00;6.30;96.30
49441;DHT22;35317;51.978;6.296;2023-03-04T06:09:01;6.30;96.40
49441;DHT22;35317;51.978;6.296;2023-03-04T06:14:02;6.30;96.40
49441;DHT22;35317;51.978;6.296;2023-03-04T06:19:03;6.30;96.50
49441;DHT22;35317;51.978;6.296;2023-03-04T06:24:04;6.30;96.50
49441;DHT22;35317;51.978;6.296;2023-03-04T06:29:06;6.30;96.40
49441;DHT22;35317;51.978;6.296;2023-03-04T06:34:07;6.30;96.40
49441;DHT22;35317;51.978;6.296;2023-03-04T06:39:09;6.30;96.50
49441;DHT22;35317;51.978;6.296;2023-03-04T06:44:10;6.30;96.50
49441;DHT22;35317;51.978;6.296;2023-03-04T06:49:13;6.30;96.60
49441;DHT22;35317;51.978;6.296;2023-03-04T06:54:13;6.30;96.70
49441;DHT22;35317;51.978;6.296;2023-03-04T06:59:14;6.30;96.70
49441;DHT22;35317;51.978;6.296;2023-03-04T07:04:15;6.30;96.70
49441;DHT22;35317;51.978;6.296;2023-03-04T07:09:16;6.40;96.70
49441;DHT22;35317;51.978;6.296;2023-03-04T07:14:17;6.40;96.70
49441;DHT22;35317;51.978;6.296;2023-03-04T07:19:18;6.30;96.80
49441;DHT22;35317;51.978;6.296;2023-03-04T07:24:19;6.40;96.90
49441;DHT22;35317;51.978;6.296;2023-03-04T07:29:19;6.40;97.00
49441;DHT22;35317;51.978;6.296;2023-03-04T07:34:20;6.50;97.00
49441;DHT22;35317;51.978;6.296;2023-03-04T07:39:21;6.60;97.00
49441;DHT22;35317;51.978;6.296;2023-03-04T07:44:22;6.70;97.00
49441;DHT22;35317;51.978;6.296;2023-03-04T07:49:22;6.80;97.00
49441;DHT22;35317;51.978;6.296;2023-03-04T07:54:23;6.90;97.00
49441;DHT22;35317;51.978;6.296;2023-03-04T07:59:24;7.00;97.00
49441;DHT22;35317;51.978;6.296;2023-03-04T08:04:25;7.10;97.00
49441;DHT22;35317;51.978;6.296;2023-03-04T08:09:25;7.20;96.90
49441;DHT22;35317;51.978;6.296;2023-03-04T08:14:26;7.40;96.80
49441;DHT22;35317;51.978;6.296;2023-03-04T08:19:27;7.40;96.80
49441;DHT22;35317;51.978;6.296;2023-03-04T08:24:27;7.40;97.00
49441;DHT22;35317;51.978;6.296;2023-03-04T08:29:28;7.60;97.10
49441;DHT22;35317;51.978;6.296;2023-03-04T08:34:29;7.70;97.10
49441;DHT22;35317;51.978;6.296;2023-03-04T08:39:30;7.70;97.30
49441;DHT22;35317;51.978;6.296;2023-03-04T08:44:32;7.70;97.10
49441;DHT22;35317;51.978;6.296;2023-03-04T08:49:33;7.70;97.20
49441;DHT22;35317;51.978;6.296;2023-03-04T08:54:34;7.90;97.20
49441;DHT22;35317;51.978;6.296;2023-03-04T08:59:34;8.00;97.10
49441;DHT22;35317;51.978;6.296;2023-03-04T09:04:35;8.20;96.80
49441;DHT22;35317;51.978;6.296;2023-03-04T09:09:36;8.30;96.60
49441;DHT22;35317;51.978;6.296;2023-03-04T09:14:37;8.30;96.50
49441;DHT22;35317;51.978;6.296;2023-03-04T09:19:38;8.40;96.30
49441;DHT22;35317;51.978;6.296;2023-03-04T09:24:39;8.40;96.10
49441;DHT22;35317;51.978;6.296;2023-03-04T09:29:39;8.60;96.20
49441;DHT22;35317;51.978;6.296;2023-03-04T09:34:41;8.80;95.80
49441;DHT22;35317;51.978;6.296;2023-03-04T09:39:42;8.90;95.50
49441;DHT22;35317;51.978;6.296;2023-03-04T09:44:45;8.90;95.30
49441;DHT22;35317;51.978;6.296;2023-03-04T09:49:58;9.00;95.10
49441;DHT22;35317;51.978;6.296;2023-03-04T09:55:12;9.00;95.20
49441;DHT22;35317;51.978;6.296;2023-03-04T10:00:23;9.10;95.50
49441;DHT22;35317;51.978;6.296;2023-03-04T10:05:38;9.00;95.80
49441;DHT22;35317;51.978;6.296;2023-03-04T10:10:41;8.90;96.20
49441;DHT22;35317;51.978;6.296;2023-03-04T10:15:47;9.00;96.40
49441;DHT22;35317;51.978;6.296;2023-03-04T10:21:01;9.20;96.40
49441;DHT22;35317;51.978;6.296;2023-03-04T10:26:15;9.40;95.90
49441;DHT22;35317;51.978;6.296;2023-03-04T10:31:36;9.50;95.60
49441;DHT22;35317;51.978;6.296;2023-03-04T10:36:49;9.40;95.70
49441;DHT22;35317;51.978;6.296;2023-03-04T10:47:10;9.00;96.90
49441;DHT22;35317;51.978;6.296;2023-03-04T10:52:39;9.10;97.20
49441;DHT22;35317;51.978;6.296;2023-03-04T10:57:43;9.10;97.50
49441;DHT22;35317;51.978;6.296;2023-03-04T11:02:45;9.10;97.30
49441;DHT22;35317;51.978;6.296;2023-03-04T11:07:52;9.00;97.60
49441;DHT22;35317;51.978;6.296;2023-03-04T11:18:13;9.10;98.50
49441;DHT22;35317;51.978;6.296;2023-03-04T11:23:55;9.30;98.60
49441;DHT22;35317;51.978;6.296;2023-03-04T11:29:30;9.60;98.70
49441;DHT22;35317;51.978;6.296;2023-03-04T11:35:17;9.70;97.80
49441;DHT22;35317;51.978;6.296;2023-03-04T11:40:35;9.70;97.40
49441;DHT22;35317;51.978;6.296;2023-03-04T11:56:44;9.30;97.30
49441;DHT22;35317;51.978;6.296;2023-03-04T12:02:20;9.30;97.40
49441;DHT22;35317;51.978;6.296;2023-03-04T12:07:49;9.20;97.70
49441;DHT22;35317;51.978;6.296;2023-03-04T12:23:53;9.60;97.20
49441;DHT22;35317;51.978;6.296;2023-03-04T12:29:48;9.60;96.90
49441;DHT22;35317;51.978;6.296;2023-03-04T12:40:54;9.70;96.70
49441;DHT22;35317;51.978;6.296;2023-03-04T12:46:30;10.00;96.50
49441;DHT22;35317;51.978;6.296;2023-03-04T12:57:25;9.70;95.90
49441;DHT22;35317;51.978;6.296;2023-03-04T13:03:02;9.60;96.00
49441;DHT22;35317;51.978;6.296;2023-03-04T13:13:40;9.60;95.40
49441;DHT22;35317;51.978;6.296;2023-03-04T13:18:41;9.60;95.30
49441;DHT22;35317;51.978;6.296;2023-03-04T13:23:44;9.60;95.20
49441;DHT22;35317;51.978;6.296;2023-03-04T13:28:45;9.40;95.40
49441;DHT22;35317;51.978;6.296;2023-03-04T13:33:47;9.10;95.00
49441;DHT22;35317;51.978;6.296;2023-03-04T13:49:42;9.30;94.50
49441;DHT22;35317;51.978;6.296;2023-03-04T13:54:43;9.50;94.00
49441;DHT22;35317;51.978;6.296;2023-03-04T13:59:46;9.60;92.90
49441;DHT22;35317;51.978;6.296;2023-03-04T14:05:00;9.60;92.60
49441;DHT22;35317;51.978;6.296;2023-03-04T14:15:26;9.70;90.70
49441;DHT22;35317;51.978;6.296;2023-03-04T14:20:36;9.80;90.60
49441;DHT22;35317;51.978;6.296;2023-03-04T14:25:38;9.80;89.60
49441;DHT22;35317;51.978;6.296;2023-03-04T14:30:40;9.80;88.50
49441;DHT22;35317;51.978;6.296;2023-03-04T14:35:49;9.70;87.90
49441;DHT22;35317;51.978;6.296;2023-03-04T14:40:56;9.50;87.70
49441;DHT22;35317;51.978;6.296;2023-03-04T14:46:09;9.40;88.60
49441;DHT22;35317;51.978;6.296;2023-03-04T14:51:39;9.50;89.40
49441;DHT22;35317;51.978;6.296;2023-03-04T14:56:43;9.50;87.60
49441;DHT22;35317;51.978;6.296;2023-03-04T15:01:44;9.50;88.10
49441;DHT22;35317;51.978;6.296;2023-03-04T15:06:52;9.50;87.60
49441;DHT22;35317;51.978;6.296;2023-03-04T15:12:04;9.50;87.50
49441;DHT22;35317;51.978;6.296;2023-03-04T15:17:23;9.50;87.10
49441;DHT22;35317;51.978;6.296;2023-03-04T15:22:27;9.40;87.50
49441;DHT22;35317;51.978;6.296;2023-03-04T15:27:29;9.40;87.60
49441;DHT22;35317;51.978;6.296;2023-03-04T15:32:30;9.30;88.10
49441;DHT22;35317;51.978;6.296;2023-03-04T15:37:31;9.20;88.40
49441;DHT22;35317;51.978;6.296;2023-03-04T15:42:32;9.10;89.10
49441;DHT22;35317;51.978;6.296;2023-03-04T15:47:32;9.00;89.60
49441;DHT22;35317;51.978;6.296;2023-03-04T15:52:33;8.90;90.00
49441;DHT22;35317;51.978;6.296;2023-03-04T15:57:35;8.90;90.20
49441;DHT22;35317;51.978;6.296;2023-03-04T16:02:36;8.80;90.30
49441;DHT22;35317;51.978;6.296;2023-03-04T16:07:38;8.70;90.60
49441;DHT22;35317;51.978;6.296;2023-03-04T16:12:42;8.50;91.00
49441;DHT22;35317;51.978;6.296;2023-03-04T16:17:43;8.40;91.50
49441;DHT22;35317;51.978;6.296;2023-03-04T16:22:47;8.40;91.70
49441;DHT22;35317;51.978;6.296;2023-03-04T16:27:50;8.40;91.90
49441;DHT22;35317;51.978;6.296;2023-03-04T16:32:53;8.30;92.10
49441;DHT22;35317;51.978;6.296;2023-03-04T16:37:54;8.20;92.20
49441;DHT22;35317;51.978;6.296;2023-03-04T16:42:55;8.20;92.40
49441;DHT22;35317;51.978;6.296;2023-03-04T16:47:56;8.20;92.40
49441;DHT22;35317;51.978;6.296;2023-03-04T16:52:57;8.20;92.50
49441;DHT22;35317;51.978;6.296;2023-03-04T16:57:58;8.10;92.50
49441;DHT22;35317;51.978;6.296;2023-03-04T17:03:00;8.10;92.60
49441;DHT22;35317;51.978;6.296;2023-03-04T17:08:01;8.10;92.70
49441;DHT22;35317;51.978;6.296;2023-03-04T17:13:01;8.00;92.80
49441;DHT22;35317;51.978;6.296;2023-03-04T17:18:02;8.00;92.90
49441;DHT22;35317;51.978;6.296;2023-03-04T17:23:03;7.90;93.00
49441;DHT22;35317;51.978;6.296;2023-03-04T17:28:04;7.90;93.10
49441;DHT22;35317;51.978;6.296;2023-03-04T17:33:04;7.80;93.10
49441;DHT22;35317;51.978;6.296;2023-03-04T17:38:05;7.80;93.00
49441;DHT22;35317;51.978;6.296;2023-03-04T17:43:06;7.70;92.90
49441;DHT22;35317;51.978;6.296;2023-03-04T17:48:11;7.60;92.70
49441;DHT22;35317;51.978;6.296;2023-03-04T17:53:14;7.70;92.60
49441;DHT22;35317;51.978;6.296;2023-03-04T17:58:15;7.60;92.50
49441;DHT22;35317;51.978;6.296;2023-03-04T18:03:16;7.50;92.50
49441;DHT22;35317;51.978;6.296;2023-03-04T18:08:17;7.50;92.70
49441;DHT22;35317;51.978;6.296;2023-03-04T18:13:18;7.50;92.80
49441;DHT22;35317;51.978;6.296;2023-03-04T18:18:20;7.50;93.00
49441;DHT22;35317;51.978;6.296;2023-03-04T18:23:21;7.40;93.20
49441;DHT22;35317;51.978;6.296;2023-03-04T18:28:22;7.30;93.40
49441;DHT22;35317;51.978;6.296;2023-03-04T18:33:23;7.30;93.70
49441;DHT22;35317;51.978;6.296;2023-03-04T18:38:24;7.30;93.90
49441;DHT22;35317;51.978;6.296;2023-03-04T18:43:25;7.20;94.20
49441;DHT22;35317;51.978;6.296;2023-03-04T18:48:27;7.10;94.50
49441;DHT22;35317;51.978;6.296;2023-03-04T18:53:29;7.10;94.80
49441;DHT22;35317;51.978;6.296;2023-03-04T18:58:33;7.00;95.00
49441;DHT22;35317;51.978;6.296;2023-03-04T19:03:35;6.90;95.40
49441;DHT22;35317;51.978;6.296;2023-03-04T19:08:37;6.90;95.70
49441;DHT22;35317;51.978;6.296;2023-03-04T19:13:40;6.80;95.80
49441;DHT22;35317;51.978;6.296;2023-03-04T19:18:41;6.80;96.10
49441;DHT22;35317;51.978;6.296;2023-03-04T19:23:41;6.70;96.30
49441;DHT22;35317;51.978;6.296;2023-03-04T19:28:42;6.60;96.40
49441;DHT22;35317;51.978;6.296;2023-03-04T19:33:43;6.60;96.50
49441;DHT22;35317;51.978;6.296;2023-03-04T19:38:44;6.50;96.50
49441;DHT22;35317;51.978;6.296;2023-03-04T19:43:45;6.50;96.60
49441;DHT22;35317;51.978;6.296;2023-03-04T19:48:48;6.40;96.80
49441;DHT22;35317;51.978;6.296;2023-03-04T19:53:49;6.40;96.90
49441;DHT22;35317;51.978;6.296;2023-03-04T19:58:54;6.30;96.90
49441;DHT22;35317;51.978;6.296;2023-03-04T20:04:00;6.40;97.00
49441;DHT22;35317;51.978;6.296;2023-03-04T20:09:20;6.30;96.90
49441;DHT22;35317;51.978;6.296;2023-03-04T20:14:22;6.30;96.90
49441;DHT22;35317;51.978;6.296;2023-03-04T20:19:22;6.30;97.00
49441;DHT22;35317;51.978;6.296;2023-03-04T20:24:24;6.30;97.00
49441;DHT22;35317;51.978;6.296;2023-03-04T20:29:25;6.30;97.10
49441;DHT22;35317;51.978;6.296;2023-03-04T20:34:28;6.30;97.10
49441;DHT22;35317;51.978;6.296;2023-03-04T20:39:29;6.20;97.20
49441;DHT22;35317;51.978;6.296;2023-03-04T20:44:29;6.20;97.40
49441;DHT22;35317;51.978;6.296;2023-03-04T20:49:30;6.10;97.50
49441;DHT22;35317;51.978;6.296;2023-03-04T20:54:33;6.10;97.60
49441;DHT22;35317;51.978;6.296;2023-03-04T20:59:35;6.00;97.90
49441;DHT22;35317;51.978;6.296;2023-03-04T21:04:37;6.00;97.90
49441;DHT22;35317;51.978;6.296;2023-03-04T21:09:38;6.00;98.00
49441;DHT22;35317;51.978;6.296;2023-03-04T21:14:42;6.00;98.00
49441;DHT22;35317;51.978;6.296;2023-03-04T21:19:44;6.00;98.10
49441;DHT22;35317;51.978;6.296;2023-03-04T21:24:45;5.90;98.50
49441;DHT22;35317;51.978;6.296;2023-03-04T21:29:47;5.80;98.70
49441;DHT22;35317;51.978;6.296;2023-03-04T21:34:49;5.80;98.90
49441;DHT22;35317;51.978;6.296;2023-03-04T21:39:51;5.70;99.10
49441;DHT22;35317;51.978;6.296;2023-03-04T21:44:53;5.70;99.10
49441;DHT22;35317;51.978;6.296;2023-03-04T21:49:56;5.70;99.20
49441;DHT22;35317;51.978;6.296;2023-03-04T21:54:57;5.70;99.20
49441;DHT22;35317;51.978;6.296;2023-03-04T21:59:59;5.60;99.30
49441;DHT22;35317;51.978;6.296;2023-03-04T22:05:00;5.60;99.50
49441;DHT22;35317;51.978;6.296;2023-03-04T22:10:01;5.50;99.60
49441;DHT22;35317;51.978;6.296;2023-03-04T22:15:02;5.50;99.70
49441;DHT22;35317;51.978;6.296;2023-03-04T22:20:03;5.50;99.80
49441;DHT22;35317;51.978;6.296;2023-03-04T22:25:05;5.50;99.90
49441;DHT22;35317;51.978;6.296;2023-03-04T22:30:07;5.40;99.90
49441;DHT22;35317;51.978;6.296;2023-03-04T22:35:28;5.40;99.90
49441;DHT22;35317;51.978;6.296;2023-03-04T22:40:49;5.40;99.90
49441;DHT22;35317;51.978;6.296;2023-03-04T22:46:18;5.40;99.90
49441;DHT22;35317;51.978;6.296;2023-03-04T22:51:42;5.40;99.90
49441;DHT22;35317;51.978;6.296;2023-03-04T22:57:03;5.30;99.90
49441;DHT22;35317;51.978;6.296;2023-03-04T23:02:04;5.30;99.90
49441;DHT22;35317;51.978;6.296;2023-03-04T23:07:05;5.30;99.90
49441;DHT22;35317;51.978;6.296;2023-03-04T23:12:06;5.30;99.90
49441;DHT22;35317;51.978;6.296;2023-03-04T23:17:07;5.30;99.90
49441;DHT22;35317;51.978;6.296;2023-03-04T23:22:08;5.30;99.90
49441;DHT22;35317;51.978;6.296;2023-03-04T23:27:09;5.20;99.90
49441;DHT22;35317;51.978;6.296;2023-03-04T23:32:10;5.20;99.90
49441;DHT22;35317;51.978;6.296;2023-03-04T23:37:10;5.20;99.90
49441;DHT22;35317;51.978;6.296;2023-03-04T23:42:11;5.10;99.90
49441;DHT22;35317;51.978;6.296;2023-03-04T23:47:12;5.10;99.90
49441;DHT22;35317;51.978;6.296;2023-03-04T23:52:13;5.10;99.90
49441;DHT22;35317;51.978;6.296;2023-03-04T23:57:14;5.10;99.90
